Time;durP1;ratioP1;P1;durP2;ratioP2;P2;SDS_P1;SDS_P2;PMS_P1;PMS_P2;Temp;Humidity;BMP_temperature;BMP_pressure;BME280_temperature;BME280_humidity;BME280_pressure;Samples;Min_cycle;Max_cycle;Signal;HPM_P1;HPM_P2
2022/11/27 00:01:12;;;;;;;3.47;3.08;;;;;;;1.13;99.54;100737.33;1739633;81;21056;-80
2022/11/27 00:03:39;;;;;;;3.62;3.17;;;;;;;1.20;99.35;100731.31;1756223;81;21785;-80
2022/11/27 00:06:06;;;;;;;5.12;4.53;;;;;;;1.17;99.47;100741.47;1743085;81;20990;-82
2022/11/27 00:08:34;;;;;;;6.00;4.67;;;;;;;1.11;99.76;100737.88;1738869;81;21000;-81
2022/11/27 00:11:08;;;;;;;6.35;4.15;;;;;;;1.13;99.88;100745.18;1736790;81;20973;-79
2022/11/27 00:13:35;;;;;;;4.40;4.00;;;;;;;1.22;99.43;100749.09;1735273;81;21533;-82
2022/11/27 00:16:02;;;;;;;4.35;3.85;;;;;;;1.20;99.28;100747.46;1754504;81;21055;-83
2022/11/27 00:18:29;;;;;;;4.83;3.65;;;;;;;1.15;99.72;100745.11;1748234;81;21095;-81
2022/11/27 00:21:03;;;;;;;4.58;3.87;;;;;;;1.14;99.68;100744.27;1736908;81;21037;-81
2022/11/27 00:23:29;;;;;;;4.47;4.00;;;;;;;1.22;99.35;100747.78;1686120;84;21016;-82
2022/11/27 00:25:56;;;;;;;6.53;3.75;;;;;;;1.24;99.61;100753.78;1722054;81;21061;-79
2022/11/27 00:28:22;;;;;;;3.55;3.25;;;;;;;1.18;99.34;100757.56;1760283;81;21094;-81
2022/11/27 00:30:49;;;;;;;4.12;3.02;;;;;;;1.11;99.78;100754.05;1742295;81;21021;-84
2022/11/27 00:33:15;;;;;;;3.52;3.00;;;;;;;1.18;99.60;100751.50;1758589;81;21013;-81
2022/11/27 00:35:42;;;;;;;3.60;3.25;;;;;;;1.24;98.70;100749.02;1753556;81;20990;-81
2022/11/27 00:38:08;;;;;;;3.47;3.10;;;;;;;1.13;98.67;100754.81;1752348;81;21028;-81
2022/11/27 00:40:36;;;;;;;3.55;3.10;;;;;;;1.04;99.21;100756.14;1704194;83;21071;-83
2022/11/27 00:43:03;;;;;;;3.67;3.30;;;;;;;1.05;99.09;100749.99;1700881;83;21545;-79
2022/11/27 00:45:29;;;;;;;4.20;3.65;;;;;;;1.15;99.19;100752.95;1698654;84;21054;-79
2022/11/27 00:47:56;;;;;;;5.40;4.20;;;;;;;1.15;99.30;100750.34;1725533;83;21005;-81
2022/11/27 00:50:22;;;;;;;4.42;3.92;;;;;;;1.12;99.48;100746.56;1726709;81;21073;-77
2022/11/27 00:52:49;;;;;;;4.05;3.45;;;;;;;1.11;99.24;100738.35;1726451;81;21740;-79
2022/11/27 00:55:15;;;;;;;5.03;3.50;;;;;;;1.21;98.80;100743.46;1751386;81;20950;-78
2022/11/27 00:57:44;;;;;;;5.37;3.92;;;;;;;1.18;98.56;100741.02;1727059;81;21018;-78
2022/11/27 01:00:13;;;;;;;4.70;3.52;;;;;;;1.10;98.66;100744.50;1731838;81;21037;-77
2022/11/27 01:02:40;;;;;;;4.60;3.37;;;;;;;1.00;98.73;100739.39;1734295;81;20997;-77
2022/11/27 01:05:07;;;;;;;4.65;4.22;;;;;;;1.06;98.75;100736.44;1734339;81;21905;-79
2022/11/27 01:07:34;;;;;;;4.78;3.87;;;;;;;1.11;98.34;100737.05;1727280;83;21025;-86
2022/11/27 01:10:00;;;;;;;7.00;5.42;;;;;;;1.03;98.47;100731.39;1727165;81;21022;-83
2022/11/27 01:12:27;;;;;;;6.42;5.45;;;;;;;0.97;98.38;100736.48;1728613;81;21077;-81
2022/11/27 01:14:53;;;;;;;8.60;6.00;;;;;;;1.00;97.96;100738.08;1747552;81;21010;-81
2022/11/27 01:17:20;;;;;;;5.62;4.97;;;;;;;1.00;97.75;100738.08;1729672;82;21133;-79
2022/11/27 01:19:46;;;;;;;5.20;4.50;;;;;;;0.91;98.37;100738.96;1737271;82;21182;-79
2022/11/27 01:22:13;;;;;;;5.08;4.42;;;;;;;0.88;98.95;100742.20;1732855;82;21061;-79
2022/11/27 01:24:39;;;;;;;3.65;3.25;;;;;;;0.93;98.74;100738.89;1722745;82;21017;-78
2022/11/27 01:27:05;;;;;;;4.15;3.62;;;;;;;0.98;98.23;100739.47;1729107;82;21045;-79
2022/11/27 01:29:32;;;;;;;4.65;3.90;;;;;;;0.97;98.50;100736.02;1739979;82;21866;-80
2022/11/27 01:31:58;;;;;;;4.90;3.90;;;;;;;0.92;98.44;100736.71;1723135;82;21003;-78
2022/11/27 01:34:25;;;;;;;4.17;3.62;;;;;;;0.92;98.60;100735.41;1722813;83;21494;-77
2022/11/27 01:36:51;;;;;;;3.92;3.25;;;;;;;1.06;98.54;100737.74;1731131;82;21030;-78
2022/11/27 01:39:19;;;;;;;5.85;4.22;;;;;;;1.07;98.40;100736.83;1726267;82;21490;-78
2022/11/27 01:41:46;;;;;;;4.37;3.90;;;;;;;1.00;98.47;100732.84;1725759;82;21127;-77
2022/11/27 01:44:33;;;;;;;5.42;4.35;;;;;;;0.96;98.93;100730.38;1724323;82;21077;-78
2022/11/27 01:47:06;;;;;;;5.28;3.80;;;;;;;1.05;98.54;100736.91;1723668;82;20927;-78
2022/11/27 01:50:20;;;;;;;7.27;4.77;;;;;;;1.23;98.49;100731.13;1812709;79;22168;-76
2022/11/27 01:52:49;;;;;;;6.45;5.15;;;;;;;1.14;98.19;100723.33;1800056;79;20994;-77
2022/11/27 01:55:31;;;;;;;7.47;4.67;;;;;;;1.08;98.22;100726.73;1800792;78;21136;-76
2022/11/27 01:58:05;;;;;;;5.30;3.67;;;;;;;1.08;98.11;100730.21;1808865;79;20907;-77
2022/11/27 02:00:31;;;;;;;4.72;3.95;;;;;;;1.17;97.50;100726.23;1806905;79;21002;-77
2022/11/27 02:02:59;;;;;;;4.80;4.00;;;;;;;1.11;97.19;100733.12;1798925;79;21007;-78
2022/11/27 02:05:27;;;;;;;4.17;3.77;;;;;;;1.02;97.45;100730.98;1792037;80;21051;-77
2022/11/27 02:07:55;;;;;;;6.05;4.83;;;;;;;0.96;97.73;100730.38;1796210;79;21072;-78
2022/11/27 02:10:36;;;;;;;5.55;4.75;;;;;;;1.03;97.38;100732.70;1835459;76;20946;-79
2022/11/27 02:13:13;;;;;;;4.80;4.30;;;;;;;1.07;97.34;100735.52;1834641;77;20966;-75
2022/11/27 02:16:23;;;;;;;7.75;6.03;;;;;;;0.99;97.40;100733.32;1771058;80;20880;-80
2022/11/27 02:18:58;;;;;;;6.28;5.67;;;;;;;0.94;97.75;100732.23;1771031;79;21077;-78
2022/11/27 02:21:57;;;;;;;5.83;4.25;;;;;;;1.04;97.62;100735.20;1748161;80;21221;-76
2022/11/27 02:24:59;;;;;;;5.35;4.47;;;;;;;1.12;97.06;100738.72;1829437;77;21052;-78
2022/11/27 02:27:43;;;;;;;5.40;4.80;;;;;;;1.06;97.07;100742.50;1798943;78;21053;-76
2022/11/27 02:30:10;;;;;;;5.67;3.85;;;;;;;0.98;97.34;100740.33;1832163;76;20923;-80
2022/11/27 02:32:41;;;;;;;4.05;3.65;;;;;;;1.04;97.24;100739.60;1844969;77;21096;-81
2022/11/27 02:35:26;;;;;;;4.90;4.28;;;;;;;1.13;96.92;100740.42;1826230;76;21928;-82
2022/11/27 02:38:07;;;;;;;4.45;3.72;;;;;;;1.15;97.21;100738.09;1770528;80;21073;-81
2022/11/27 02:40:44;;;;;;;5.03;4.35;;;;;;;1.18;96.88;100739.72;1772701;81;21057;-81
2022/11/27 02:43:17;;;;;;;4.60;3.95;;;;;;;1.18;96.88;100739.72;1783915;78;20994;-79
2022/11/27 02:45:48;;;;;;;4.42;3.98;;;;;;;1.24;96.30;100749.02;1792161;79;21041;-77
2022/11/27 02:48:16;;;;;;;5.58;4.55;;;;;;;1.17;96.60;100740.16;1787105;79;21207;-77
2022/11/27 02:50:43;;;;;;;4.17;3.77;;;;;;;1.17;96.60;100740.16;1765245;80;20898;-78
2022/11/27 02:53:14;;;;;;;5.22;4.05;;;;;;;1.14;96.84;100744.71;1810193;78;21003;-78
2022/11/27 02:55:41;;;;;;;4.35;3.60;;;;;;;1.15;96.44;100738.09;1780551;78;21014;-80
2022/11/27 02:58:12;;;;;;;4.35;3.87;;;;;;;1.25;96.01;100742.36;1808798;79;21018;-79
2022/11/27 03:00:39;;;;;;;4.97;4.08;;;;;;;1.22;95.83;100763.92;1775025;81;21085;-81
2022/11/27 03:03:08;;;;;;;4.60;4.10;;;;;;;1.09;95.58;100742.83;1765738;79;21006;-81
2022/11/27 03:05:39;;;;;;;4.47;3.80;;;;;;;1.03;95.78;100749.23;1744717;81;21012;-81
2022/11/27 03:08:31;;;;;;;7.28;4.40;;;;;;;1.07;95.45;100751.22;1787832;78;21067;-79
2022/11/27 03:11:11;;;;;;;6.30;4.75;;;;;;;1.05;95.88;100750.47;1778472;78;21081;-78
2022/11/27 03:13:42;;;;;;;6.30;5.05;;;;;;;1.00;96.18;100753.78;1800427;79;21246;-79
2022/11/27 03:16:48;;;;;;;7.28;4.22;;;;;;;0.94;96.34;100753.17;1813443;77;21532;-77
2022/11/27 03:19:37;;;;;;;5.75;4.37;;;;;;;1.00;96.23;100759.02;1793646;79;21045;-80
2022/11/27 03:22:03;;;;;;;8.60;5.47;;;;;;;1.13;96.16;100766.59;1756155;79;21555;-78
2022/11/27 03:24:33;;;;;;;7.70;5.33;;;;;;;1.11;96.20;100765.36;1748046;80;21096;-77
2022/11/27 03:26:59;;;;;;;6.75;4.00;;;;;;;1.09;96.39;100761.14;1765333;80;21788;-78
2022/11/27 03:29:40;;;;;;;5.53;4.35;;;;;;;1.10;95.95;100764.12;1749242;81;21033;-76
2022/11/27 03:32:08;;;;;;;7.33;5.03;;;;;;;1.15;95.49;100761.64;1743347;80;21027;-77
2022/11/27 03:34:35;;;;;;;5.33;4.47;;;;;;;1.12;95.54;100761.83;1771654;81;21093;-77
2022/11/27 03:37:01;;;;;;;7.87;5.40;;;;;;;1.04;95.55;100765.30;1798971;79;21088;-77
2022/11/27 03:39:28;;;;;;;7.25;4.92;;;;;;;0.97;95.87;100762.18;1848701;77;21135;-77
2022/11/27 03:42:32;;;;;;;7.30;4.75;;;;;;;1.00;95.71;100762.94;1828981;77;21017;-78
2022/11/27 03:45:36;;;;;;;5.40;4.00;;;;;;;1.12;95.53;100762.27;1825642;76;20977;-78
2022/11/27 03:48:11;;;;;;;5.15;4.33;;;;;;;1.12;95.65;100762.27;1825168;77;21041;-80
2022/11/27 03:50:46;;;;;;;5.12;4.15;;;;;;;1.08;95.81;100768.16;1852652;77;21021;-80
2022/11/27 03:53:46;;;;;;;5.37;3.90;;;;;;;1.08;95.21;100769.91;1844914;77;21203;-80
2022/11/27 03:56:35;;;;;;;5.05;3.87;;;;;;;1.11;95.01;100766.67;1830736;77;20997;-81
2022/11/27 03:59:09;;;;;;;5.67;4.20;;;;;;;1.00;95.00;100766.39;1819631;78;20989;-83
2022/11/27 04:01:36;;;;;;;6.40;4.58;;;;;;;0.90;95.53;100759.50;1829409;77;21108;-81
2022/11/27 04:04:02;;;;;;;4.95;4.10;;;;;;;0.90;95.53;100759.50;1820614;77;21586;-81
2022/11/27 04:06:29;;;;;;;4.97;4.03;;;;;;;1.02;95.43;100764.53;1845380;76;21183;-80
2022/11/27 04:08:56;;;;;;;5.72;4.33;;;;;;;1.05;95.65;100764.86;1852802;77;20970;-78
2022/11/27 04:11:22;;;;;;;5.72;4.85;;;;;;;1.03;96.20;100762.31;1841309;77;20954;-80
2022/11/27 04:13:50;;;;;;;4.80;4.30;;;;;;;1.09;95.73;100767.22;1850336;77;21352;-82
2022/11/27 04:16:18;;;;;;;5.50;4.28;;;;;;;1.09;95.73;100767.22;1826876;77;21040;-79
2022/11/27 04:18:45;;;;;;;5.33;4.42;;;;;;;1.17;94.98;100770.73;1776592;80;21735;-81
2022/11/27 04:21:11;;;;;;;7.95;5.70;;;;;;;1.16;95.29;100776.91;1778094;80;21075;-79
2022/11/27 04:23:38;;;;;;;10.70;6.75;;;;;;;1.13;95.50;100777.06;1762497;80;21038;-80
2022/11/27 04:26:05;;;;;;;8.05;4.75;;;;;;;1.06;95.44;100777.00;1776417;80;21061;-77
2022/11/27 04:28:32;;;;;;;9.20;5.70;;;;;;;1.07;95.61;100770.86;1779032;80;21402;-80
2022/11/27 04:30:59;;;;;;;6.42;5.05;;;;;;;1.17;95.04;100766.80;1801602;78;21143;-80
2022/11/27 04:33:26;;;;;;;6.05;4.90;;;;;;;1.15;95.02;100773.42;1770645;79;21518;-79
2022/11/27 04:35:53;;;;;;;5.80;4.95;;;;;;;1.11;95.47;100769.28;1765794;79;21081;-80
2022/11/27 04:38:20;;;;;;;7.28;5.20;;;;;;;1.12;95.29;100754.42;1788275;80;21518;-81
2022/11/27 04:40:46;;;;;;;6.53;4.40;;;;;;;1.17;94.88;100762.87;1768714;81;21082;-79
2022/11/27 04:43:13;;;;;;;6.20;5.30;;;;;;;1.15;95.09;100764.73;1788684;80;21141;-79
2022/11/27 04:45:40;;;;;;;6.03;4.53;;;;;;;1.08;95.10;100772.53;1787961;80;21011;-80
2022/11/27 04:48:06;;;;;;;6.58;5.10;;;;;;;1.02;94.90;100767.62;1762242;80;21092;-83
2022/11/27 04:50:32;;;;;;;7.50;5.50;;;;;;;1.05;94.86;100767.00;1766025;81;21101;-82
2022/11/27 04:52:59;;;;;;;7.00;6.25;;;;;;;1.02;95.25;100766.32;1715412;81;21090;-82
2022/11/27 04:55:25;;;;;;;6.42;5.33;;;;;;;0.98;95.68;100766.94;1740356;80;21538;-83
2022/11/27 04:57:52;;;;;;;9.03;6.33;;;;;;;0.95;95.60;100770.58;1748823;81;21069;-82
2022/11/27 05:00:20;;;;;;;5.97;5.00;;;;;;;1.01;95.12;100772.02;1754711;79;21034;-84
2022/11/27 05:02:47;;;;;;;8.13;5.45;;;;;;;1.04;95.12;100772.31;1760883;80;21081;-82
2022/11/27 05:05:13;;;;;;;8.75;5.83;;;;;;;0.97;95.33;100768.72;1719332;83;20979;-82
2022/11/27 05:07:40;;;;;;;7.42;5.42;;;;;;;0.89;95.60;100771.34;1780544;79;21139;-81
2022/11/27 05:10:08;;;;;;;6.00;5.20;;;;;;;0.92;95.96;100773.34;1731025;83;21035;-82
2022/11/27 05:12:34;;;;;;;8.95;5.37;;;;;;;1.06;95.65;100769.15;1752432;79;21680;-84
2022/11/27 05:15:01;;;;;;;6.87;5.42;;;;;;;1.04;95.68;100771.00;1773675;80;21487;-85
2022/11/27 05:17:27;;;;;;;7.05;5.87;;;;;;;0.99;96.00;100771.27;1760995;81;21001;-84
2022/11/27 05:19:53;;;;;;;5.67;4.75;;;;;;;0.97;96.37;100770.03;1785171;78;21100;-84
2022/11/27 05:22:20;;;;;;;6.08;4.78;;;;;;;1.00;95.78;100771.63;1717389;83;21010;-84
2022/11/27 05:24:48;;;;;;;6.62;5.40;;;;;;;1.11;95.71;100769.76;1776341;79;21014;-83
2022/11/27 05:27:14;;;;;;;7.12;5.42;;;;;;;1.11;95.85;100775.00;1740998;82;21021;-81
2022/11/27 05:29:42;;;;;;;6.30;5.12;;;;;;;1.08;96.01;100773.84;1762585;81;20962;-80
2022/11/27 05:32:09;;;;;;;6.80;5.37;;;;;;;1.06;96.06;100775.69;1762161;80;21228;-81
2022/11/27 05:34:37;;;;;;;7.33;4.92;;;;;;;1.12;95.62;100781.46;1759829;81;21062;-81
2022/11/27 05:37:04;;;;;;;6.03;4.90;;;;;;;1.10;95.93;100784.62;1755158;80;21020;-82
2022/11/27 05:39:30;;;;;;;7.30;5.62;;;;;;;1.10;95.93;100784.62;1748764;81;21098;-83
2022/11/27 05:41:57;;;;;;;7.90;5.50;;;;;;;1.07;96.23;100776.09;1772002;79;21033;-84
2022/11/27 05:44:25;;;;;;;5.55;4.65;;;;;;;1.08;95.92;100776.45;1733249;81;21136;-80
2022/11/27 05:46:51;;;;;;;8.03;5.72;;;;;;;1.15;95.54;100777.83;1760245;80;21081;-82
2022/11/27 05:49:18;;;;;;;6.53;5.17;;;;;;;1.08;95.69;100779.07;1774800;79;21039;-79
2022/11/27 05:51:44;;;;;;;8.08;6.50;;;;;;;1.02;95.89;100776.78;1800785;79;21006;-79
2022/11/27 05:54:11;;;;;;;6.62;5.45;;;;;;;0.96;96.09;100782.72;1814610;79;21032;-77
2022/11/27 05:56:38;;;;;;;6.70;5.15;;;;;;;1.01;95.86;100785.58;1844477;76;21808;-77
2022/11/27 05:59:04;;;;;;;7.78;4.42;;;;;;;1.09;95.60;100782.92;1844930;76;20988;-78
2022/11/27 06:01:31;;;;;;;6.55;4.83;;;;;;;1.08;95.70;100781.69;1827122;76;21065;-73
2022/11/27 06:03:57;;;;;;;6.28;4.40;;;;;;;1.05;96.13;100787.10;1836194;77;20990;-76
2022/11/27 06:06:24;;;;;;;6.85;4.90;;;;;;;1.02;96.51;100784.63;1812068;77;20970;-74
2022/11/27 06:08:51;;;;;;;6.45;4.50;;;;;;;1.09;96.48;100780.78;1835094;76;22022;-74
2022/11/27 06:11:20;;;;;;;6.92;5.35;;;;;;;1.18;95.88;100783.74;1831036;77;21037;-75
2022/11/27 06:13:47;;;;;;;6.25;4.65;;;;;;;1.17;95.63;100785.97;1834750;78;21040;-75
2022/11/27 06:16:20;;;;;;;4.67;3.98;;;;;;;1.09;95.53;100794.70;1827602;77;21072;-72
2022/11/27 06:18:49;;;;;;;5.83;4.28;;;;;;;1.03;95.46;100788.95;1820805;76;21038;-73
2022/11/27 06:21:16;;;;;;;5.95;4.78;;;;;;;1.10;95.75;100789.86;1837421;77;21742;-77
2022/11/27 06:23:43;;;;;;;6.22;5.17;;;;;;;1.09;96.00;100793.86;1828255;77;21010;-70
2022/11/27 06:26:20;;;;;;;5.37;4.28;;;;;;;1.11;96.49;100780.23;1832334;76;21481;-73
2022/11/27 06:28:48;;;;;;;6.55;4.53;;;;;;;1.16;96.11;100788.69;1832797;77;21061;-73
2022/11/27 06:31:19;;;;;;;6.28;5.20;;;;;;;1.20;95.18;100794.14;1824076;77;21095;-74
2022/11/27 06:33:47;;;;;;;6.72;4.97;;;;;;;1.20;95.18;100794.14;1833371;76;21781;-73
2022/11/27 06:36:13;;;;;;;6.78;5.22;;;;;;;1.11;95.16;100800.70;1840465;77;21061;-71
2022/11/27 06:38:40;;;;;;;8.40;5.67;;;;;;;0.98;95.38;100800.52;1838877;78;20967;-72
2022/11/27 06:41:10;;;;;;;6.15;5.55;;;;;;;0.98;95.54;100797.91;1829037;76;21192;-71
2022/11/27 06:43:37;;;;;;;6.60;5.83;;;;;;;1.11;95.62;100805.09;1836399;76;21579;-72
2022/11/27 06:46:05;;;;;;;6.50;5.60;;;;;;;1.13;96.33;100801.92;1845211;77;21321;-72
2022/11/27 06:48:33;;;;;;;7.37;5.97;;;;;;;1.11;96.00;100803.78;1846973;76;20994;-70
2022/11/27 06:51:02;;;;;;;6.97;5.22;;;;;;;1.08;96.33;100802.19;1840145;76;21077;-70
2022/11/27 06:53:30;;;;;;;7.72;5.47;;;;;;;1.17;96.38;100804.29;1831005;76;20989;-72
2022/11/27 06:55:56;;;;;;;5.30;4.45;;;;;;;1.29;95.99;100802.78;1851847;77;21084;-72
2022/11/27 06:58:23;;;;;;;6.00;5.05;;;;;;;1.23;95.46;100807.52;1844346;77;21034;-70
2022/11/27 07:00:53;;;;;;;5.95;4.97;;;;;;;1.14;95.88;100807.52;1825718;76;21061;-73
2022/11/27 07:03:20;;;;;;;6.00;4.78;;;;;;;1.17;96.03;100808.69;1810745;77;21034;-72
2022/11/27 07:05:46;;;;;;;6.67;5.78;;;;;;;1.29;95.76;100804.09;1835539;77;21115;-73
2022/11/27 07:08:14;;;;;;;7.72;6.15;;;;;;;1.26;95.47;100808.20;1851253;76;21008;-74
2022/11/27 07:10:40;;;;;;;7.15;5.92;;;;;;;1.20;95.55;100809.84;1832855;77;21139;-71
2022/11/27 07:13:07;;;;;;;7.40;5.42;;;;;;;1.17;95.65;100813.92;1840030;77;21104;-73
2022/11/27 07:15:34;;;;;;;6.65;5.12;;;;;;;1.23;95.26;100798.35;1841496;77;20959;-73
2022/11/27 07:18:02;;;;;;;6.53;5.58;;;;;;;1.12;94.81;100808.95;1843427;76;21009;-73
2022/11/27 07:20:31;;;;;;;7.55;5.90;;;;;;;1.12;94.81;100808.95;1833977;76;21057;-75
2022/11/27 07:22:58;;;;;;;6.85;5.47;;;;;;;1.06;95.29;100812.33;1832300;77;21487;-72
2022/11/27 07:25:24;;;;;;;6.10;4.97;;;;;;;1.01;95.45;100809.13;1824006;76;21037;-72
2022/11/27 07:27:51;;;;;;;6.60;5.83;;;;;;;1.09;95.38;100813.48;1798487;78;21084;-73
2022/11/27 07:30:18;;;;;;;7.55;5.53;;;;;;;1.17;95.39;100815.23;1819110;77;21526;-73
2022/11/27 07:32:45;;;;;;;7.47;6.30;;;;;;;1.12;95.38;100809.38;1819308;76;21028;-71
2022/11/27 07:35:11;;;;;;;6.50;5.50;;;;;;;1.02;95.42;100806.41;1814766;79;21226;-72
2022/11/27 07:37:38;;;;;;;6.37;5.78;;;;;;;1.04;95.61;100807.64;1814710;79;21068;-73
2022/11/27 07:40:06;;;;;;;6.62;5.45;;;;;;;1.17;95.48;100806.07;1814902;79;21024;-73
2022/11/27 07:42:33;;;;;;;6.50;5.90;;;;;;;1.20;95.66;100801.12;1845751;76;21050;-73
2022/11/27 07:44:59;;;;;;;6.65;5.45;;;;;;;1.20;95.86;100798.50;1823525;76;21017;-72
2022/11/27 07:47:26;;;;;;;7.78;6.17;;;;;;;1.19;96.00;100798.98;1831900;77;21126;-72
2022/11/27 07:49:54;;;;;;;5.67;5.17;;;;;;;1.22;95.90;100802.75;1840913;77;20990;-73
2022/11/27 07:52:20;;;;;;;6.35;5.10;;;;;;;1.34;95.68;100798.16;1823360;77;21064;-71
2022/11/27 07:54:47;;;;;;;6.58;5.87;;;;;;;1.35;95.54;100804.23;1818617;77;21583;-73
2022/11/27 07:57:15;;;;;;;7.87;7.03;;;;;;;1.32;95.56;100804.41;1821226;76;21574;-74
2022/11/27 07:59:41;;;;;;;9.40;6.35;;;;;;;1.31;95.81;100807.50;1844056;76;21091;-73
2022/11/27 08:02:13;;;;;;;7.45;6.65;;;;;;;1.42;95.63;100812.14;1843990;76;21006;-72
2022/11/27 08:04:41;;;;;;;7.42;6.28;;;;;;;1.50;94.80;100811.72;1821530;77;21052;-76
2022/11/27 08:07:07;;;;;;;7.00;5.67;;;;;;;1.52;95.18;100810.70;1830464;77;21133;-74
2022/11/27 08:09:33;;;;;;;6.47;5.78;;;;;;;1.50;95.27;100808.62;1845564;77;20938;-72
2022/11/27 08:12:00;;;;;;;6.75;5.45;;;;;;;1.44;94.75;100812.06;1827296;77;21382;-72
2022/11/27 08:14:27;;;;;;;6.08;5.47;;;;;;;1.45;94.33;100808.06;1814201;77;21076;-72
2022/11/27 08:16:53;;;;;;;6.95;6.03;;;;;;;1.41;94.30;100806.53;1848411;76;21020;-72
2022/11/27 08:19:19;;;;;;;6.72;6.03;;;;;;;1.36;95.02;100808.55;1851711;77;21009;-73
2022/11/27 08:21:46;;;;;;;7.08;5.60;;;;;;;1.34;95.07;100803.86;1846169;77;21077;-72
2022/11/27 08:24:12;;;;;;;8.35;5.37;;;;;;;1.36;95.00;100802.84;1829451;76;21104;-73
2022/11/27 08:26:40;;;;;;;6.00;5.40;;;;;;;1.45;94.45;100809.80;1832924;77;21017;-73
2022/11/27 08:29:10;;;;;;;7.17;6.03;;;;;;;1.44;94.75;100810.75;1851350;77;21047;-75
2022/11/27 08:31:38;;;;;;;6.53;5.22;;;;;;;1.37;94.39;100811.09;1851544;77;21450;-73
2022/11/27 08:34:05;;;;;;;6.67;5.72;;;;;;;1.45;94.48;100811.98;1820169;77;21052;-74
2022/11/27 08:36:31;;;;;;;6.47;5.20;;;;;;;1.45;94.48;100811.98;1841073;76;21151;-73
2022/11/27 08:38:59;;;;;;;6.35;5.42;;;;;;;1.46;94.77;100816.75;1848842;77;21525;-73
2022/11/27 08:41:26;;;;;;;6.78;5.55;;;;;;;1.44;95.04;100812.06;1851557;77;21528;-71
2022/11/27 08:43:52;;;;;;;6.00;5.33;;;;;;;1.50;94.62;100809.11;1846982;76;21042;-74
2022/11/27 08:46:20;;;;;;;7.50;5.10;;;;;;;1.59;94.16;100809.08;1751893;79;21023;-74
2022/11/27 08:48:47;;;;;;;6.47;5.72;;;;;;;1.59;94.77;100810.39;1744108;82;21141;-74
2022/11/27 08:51:15;;;;;;;6.30;4.60;;;;;;;1.59;95.10;100805.98;1740828;81;21102;-73
2022/11/27 08:53:44;;;;;;;5.62;4.50;;;;;;;1.64;94.53;100806.59;1749335;81;21473;-73
2022/11/27 08:56:17;;;;;;;7.03;5.37;;;;;;;1.72;94.33;100810.93;1744315;82;21009;-73
2022/11/27 08:58:43;;;;;;;5.75;4.87;;;;;;;1.70;94.32;100810.17;1761656;81;21078;-73
2022/11/27 09:01:19;;;;;;;5.53;4.97;;;;;;;1.67;94.44;100809.02;1744898;82;21107;-72
2022/11/27 09:03:47;;;;;;;7.37;5.60;;;;;;;1.72;94.29;100804.38;1745908;81;21030;-75
2022/11/27 09:06:16;;;;;;;7.87;5.97;;;;;;;1.75;93.25;100809.43;1744822;81;21029;-73
2022/11/27 09:08:43;;;;;;;7.35;6.15;;;;;;;1.59;92.98;100805.98;1745149;82;21029;-73
2022/11/27 09:11:11;;;;;;;5.92;5.28;;;;;;;1.49;92.94;100802.20;1744833;81;21033;-74
2022/11/27 09:13:39;;;;;;;6.90;5.92;;;;;;;1.51;93.17;100803.79;1744294;82;21346;-74
2022/11/27 09:16:08;;;;;;;7.10;5.33;;;;;;;1.45;93.40;100811.12;1744535;82;21128;-74
2022/11/27 09:18:35;;;;;;;6.08;4.58;;;;;;;1.40;94.02;100806.61;1744222;81;21029;-74
2022/11/27 09:21:04;;;;;;;5.05;4.55;;;;;;;1.53;94.46;100803.71;1744871;82;21080;-74
2022/11/27 09:23:31;;;;;;;6.95;4.70;;;;;;;1.63;94.68;100801.43;1744567;82;21613;-75
2022/11/27 09:26:00;;;;;;;6.65;5.47;;;;;;;1.61;94.84;100803.30;1744529;82;21062;-75
2022/11/27 09:28:27;;;;;;;6.20;4.87;;;;;;;1.62;94.63;100807.58;1761503;81;21062;-74
2022/11/27 09:30:55;;;;;;;8.03;5.97;;;;;;;1.71;94.09;100806.61;1750492;81;21085;-73
2022/11/27 09:33:23;;;;;;;5.30;4.62;;;;;;;1.76;94.04;100807.69;1744671;82;20983;-70
2022/11/27 09:35:50;;;;;;;5.47;4.30;;;;;;;1.69;93.87;100800.61;1744442;82;21022;-74
2022/11/27 09:38:16;;;;;;;4.92;4.33;;;;;;;1.76;93.39;100804.59;1744756;82;21179;-72
2022/11/27 09:40:47;;;;;;;5.55;4.45;;;;;;;1.76;93.39;100804.59;1718933;82;21124;-73
2022/11/27 09:43:14;;;;;;;5.83;5.03;;;;;;;1.70;93.43;100804.06;1744229;81;21022;-73
2022/11/27 09:45:44;;;;;;;4.92;4.20;;;;;;;1.62;93.65;100802.34;1737098;80;21008;-74
2022/11/27 09:48:16;;;;;;;4.55;4.15;;;;;;;1.69;93.41;100801.08;1730257;83;21019;-74
2022/11/27 09:50:49;;;;;;;6.45;5.17;;;;;;;1.76;93.83;100802.44;1730334;82;21014;-75
2022/11/27 09:53:27;;;;;;;5.45;4.33;;;;;;;1.68;93.28;100804.62;1730332;81;21024;-75
2022/11/27 09:55:54;;;;;;;6.08;4.20;;;;;;;1.60;93.02;100791.95;1731012;83;21095;-78
2022/11/27 09:58:41;;;;;;;6.00;4.47;;;;;;;1.62;92.95;100795.80;1731666;83;21041;-74
2022/11/27 10:01:20;;;;;;;5.75;4.50;;;;;;;1.57;93.03;100797.38;1731547;83;21048;-74
2022/11/27 10:03:46;;;;;;;4.83;4.28;;;;;;;1.48;93.60;100800.02;1705366;83;21065;-73
2022/11/27 10:06:36;;;;;;;5.75;4.37;;;;;;;1.48;93.60;100800.02;1714670;83;21028;-74
2022/11/27 10:09:25;;;;;;;5.45;4.15;;;;;;;1.53;93.73;100800.62;1721442;82;21045;-74
2022/11/27 10:12:29;;;;;;;6.45;4.85;;;;;;;1.53;93.85;100798.47;1700248;83;21104;-73
2022/11/27 10:15:03;;;;;;;6.75;4.92;;;;;;;1.66;95.06;100795.56;1715373;83;21032;-75
2022/11/27 10:17:54;;;;;;;5.87;4.83;;;;;;;1.66;95.06;100795.56;1701381;84;21544;-73
2022/11/27 10:20:35;;;;;;;5.45;4.25;;;;;;;1.61;94.43;100794.95;1701128;81;21096;-73
2022/11/27 10:23:32;;;;;;;6.00;5.12;;;;;;;1.71;94.38;100794.81;1714410;81;21052;-75
2022/11/27 10:26:16;;;;;;;5.75;4.53;;;;;;;1.82;94.45;100797.33;1724605;83;21554;-75
2022/11/27 10:29:08;;;;;;;4.85;4.30;;;;;;;1.73;94.22;100782.48;1709883;82;21036;-74
2022/11/27 10:31:46;;;;;;;5.15;4.55;;;;;;;1.76;93.39;100787.55;1729884;82;21644;-75
2022/11/27 10:34:45;;;;;;;5.03;4.53;;;;;;;1.65;93.13;100789.09;1747311;81;21624;-74
2022/11/27 10:37:30;;;;;;;5.25;4.35;;;;;;;1.50;93.33;100778.98;1714019;81;21499;-74
2022/11/27 10:40:11;;;;;;;8.23;6.37;;;;;;;1.60;93.52;100779.32;1736240;81;21077;-74
2022/11/27 10:43:03;;;;;;;12.00;8.23;;;;;;;1.60;93.52;100779.32;1734322;81;21074;-73
2022/11/27 10:46:00;;;;;;;11.78;6.45;;;;;;;1.51;93.52;100776.77;1701096;83;21495;-72
2022/11/27 10:48:29;;;;;;;8.13;6.10;;;;;;;1.59;93.84;100771.94;1710045;83;21053;-73
2022/11/27 10:50:55;;;;;;;5.95;4.92;;;;;;;1.66;94.16;100772.42;1731638;81;21027;-73
2022/11/27 10:53:26;;;;;;;5.58;4.72;;;;;;;1.61;94.08;100774.00;1732166;82;21028;-72
2022/11/27 10:56:19;;;;;;;5.33;4.65;;;;;;;1.68;93.60;100775.36;1731080;82;21025;-74
2022/11/27 10:58:58;;;;;;;6.05;5.42;;;;;;;1.67;93.37;100763.18;1727375;81;21544;-76
2022/11/27 11:01:28;;;;;;;7.87;5.47;;;;;;;1.57;93.81;100764.16;1731409;83;21052;-72
2022/11/27 11:04:08;;;;;;;7.53;5.78;;;;;;;1.71;93.96;100755.52;1731070;82;21013;-73
2022/11/27 11:06:40;;;;;;;7.10;5.87;;;;;;;1.70;93.31;100754.30;1730690;81;21119;-74
2022/11/27 11:09:14;;;;;;;6.92;5.90;;;;;;;1.73;94.01;100745.80;1730791;82;21714;-74
2022/11/27 11:11:40;;;;;;;14.45;10.72;;;;;;;1.73;94.01;100745.80;1714690;83;21205;-73
2022/11/27 11:14:24;;;;;;;7.83;6.78;;;;;;;1.74;93.62;100751.44;1730789;82;21028;-75
2022/11/27 11:16:53;;;;;;;8.75;6.92;;;;;;;1.67;93.58;100752.70;1730609;83;21041;-74
2022/11/27 11:19:35;;;;;;;7.80;7.03;;;;;;;1.72;93.66;100747.19;1729916;81;21072;-75
2022/11/27 11:22:14;;;;;;;7.08;6.35;;;;;;;1.81;94.25;100749.77;1723975;82;21018;-79
2022/11/27 11:24:48;;;;;;;6.65;5.72;;;;;;;1.80;94.38;100747.62;1747962;81;21136;-79
2022/11/27 11:27:20;;;;;;;;;;;;;;;1.95;94.39;100752.44;1738429;81;21089;-79
2022/11/27 11:29:50;;;;;;;6.78;5.83;;;;;;;1.88;94.19;100751.12;1730717;82;20165;-77
2022/11/27 11:32:24;;;;;;;7.15;5.70;;;;;;;1.95;93.67;100745.44;1730053;81;21076;-77
2022/11/27 11:34:58;;;;;;;6.95;5.10;;;;;;;1.95;93.67;100745.44;1730780;82;21132;-78
2022/11/27 11:37:32;;;;;;;5.72;4.60;;;;;;;1.86;92.74;100745.13;1730428;82;21048;-80
2022/11/27 11:40:22;;;;;;;5.93;4.93;;;;;;;1.86;92.74;100745.13;1730511;81;21084;-78
2022/11/27 11:42:59;;;;;;;5.25;4.35;;;;;;;1.88;93.10;100740.16;1730494;81;21049;-78
2022/11/27 11:45:27;;;;;;;5.10;4.60;;;;;;;1.93;92.91;100750.37;1729669;81;21706;-77
2022/11/27 11:47:59;;;;;;;4.85;4.20;;;;;;;1.80;92.70;100758.10;1732999;83;21005;-77
2022/11/27 11:50:57;;;;;;;5.53;4.92;;;;;;;1.81;92.87;100751.08;1736244;81;21130;-78
2022/11/27 11:53:41;;;;;;;4.83;4.00;;;;;;;1.79;92.55;100748.54;1730694;83;20996;-77